createdAt,value
2023-01-04T00:00:38.361Z,7.70
2023-01-04T00:03:07.907Z,7.70
2023-01-04T00:05:37.373Z,7.70
2023-01-04T00:08:06.930Z,7.80
2023-01-04T00:10:37.739Z,7.80
2023-01-04T00:13:07.959Z,7.70
2023-01-04T00:15:37.841Z,7.80
2023-01-04T00:18:07.389Z,7.80
2023-01-04T00:20:37.637Z,7.80
2023-01-04T00:23:07.082Z,7.80
2023-01-04T00:25:38.113Z,7.80
2023-01-04T00:28:07.554Z,7.80
2023-01-04T00:30:37.037Z,7.80
2023-01-04T00:33:07.486Z,7.80
2023-01-04T00:35:45.869Z,7.70
2023-01-04T00:38:08.041Z,7.70
2023-01-04T00:40:37.464Z,7.70
2023-01-04T00:43:06.907Z,7.70
2023-01-04T00:45:37.083Z,7.60
2023-01-04T00:48:06.743Z,7.40
2023-01-04T00:50:36.245Z,7.60
2023-01-04T00:53:06.175Z,7.60
2023-01-04T00:55:34.821Z,7.40
2023-01-04T00:58:04.343Z,7.40
2023-01-04T01:00:34.056Z,7.00
2023-01-04T01:03:05.725Z,6.80
2023-01-04T01:05:36.838Z,6.60
2023-01-04T01:08:24.295Z,6.70
2023-01-04T01:10:55.300Z,6.60
2023-01-04T01:13:24.813Z,7.00
2023-01-04T01:15:54.311Z,6.80
2023-01-04T01:18:24.152Z,6.90
2023-01-04T01:20:53.633Z,6.90
2023-01-04T01:23:23.064Z,6.90
2023-01-04T01:25:53.514Z,6.70
2023-01-04T01:28:22.931Z,6.80
2023-01-04T01:30:52.386Z,6.70
2023-01-04T01:33:22.215Z,6.40
2023-01-04T01:35:51.641Z,6.30
2023-01-04T01:38:21.068Z,6.40
2023-01-04T01:40:50.618Z,6.70
2023-01-04T01:43:22.885Z,6.60
2023-01-04T01:45:55.425Z,6.90
2023-01-04T01:48:28.826Z,6.90
2023-01-04T01:51:04.145Z,7.00
2023-01-04T01:53:36.644Z,7.00
2023-01-04T01:56:09.474Z,6.90
2023-01-04T01:58:41.985Z,6.90
2023-01-04T02:01:13.082Z,6.90
2023-01-04T02:03:44.479Z,6.80
2023-01-04T02:06:17.436Z,6.70
2023-01-04T02:08:50.372Z,6.60
2023-01-04T02:11:20.223Z,6.70
2023-01-04T02:14:08.325Z,6.40
2023-01-04T02:16:41.557Z,6.50
2023-01-04T02:19:32.290Z,6.50
2023-01-04T02:22:10.590Z,6.80
2023-01-04T02:24:52.058Z,6.90
2023-01-04T02:27:36.826Z,6.80
2023-01-04T02:30:26.617Z,6.90
2023-01-04T02:33:08.706Z,6.70
2023-01-04T02:36:08.088Z,6.90
2023-01-04T02:38:49.655Z,7.00
2023-01-04T02:41:37.051Z,7.00
2023-01-04T02:44:36.623Z,7.00
2023-01-04T02:47:17.673Z,7.00
2023-01-04T02:50:05.751Z,7.00
2023-01-04T02:52:36.246Z,7.00
2023-01-04T02:55:08.623Z,6.60
2023-01-04T02:57:46.929Z,6.50
2023-01-04T03:00:40.805Z,6.70
2023-01-04T03:03:39.397Z,6.30
2023-01-04T03:06:30.817Z,5.90
2023-01-04T03:09:12.080Z,6.20
2023-01-04T03:12:05.791Z,6.40
2023-01-04T03:14:50.190Z,6.40
2023-01-04T03:17:22.739Z,6.30
2023-01-04T03:19:55.651Z,6.60
2023-01-04T03:22:56.145Z,6.50
2023-01-04T03:26:00.714Z,6.60
2023-01-04T03:28:51.507Z,6.60
2023-01-04T03:31:42.623Z,6.70
2023-01-04T03:34:30.541Z,6.50
2023-01-04T03:37:18.148Z,5.90
2023-01-04T03:40:17.855Z,5.80
2023-01-04T03:43:16.748Z,5.90
2023-01-04T03:46:07.420Z,5.60
2023-01-04T03:48:57.949Z,5.40
2023-01-04T03:51:30.628Z,5.70
2023-01-04T03:54:04.006Z,5.50
2023-01-04T03:56:36.370Z,5.70
2023-01-04T03:59:07.025Z,5.60
2023-01-04T04:01:38.292Z,5.80
2023-01-04T04:04:25.739Z,5.50
2023-01-04T04:07:14.096Z,5.00
2023-01-04T04:09:43.582Z,5.30
2023-01-04T04:12:13.408Z,5.00
2023-01-04T04:14:42.941Z,4.90
2023-01-04T04:17:12.373Z,5.30
2023-01-04T04:19:41.813Z,5.20
2023-01-04T04:22:11.521Z,5.00
2023-01-04T04:24:40.951Z,5.10
2023-01-04T04:27:10.806Z,4.90
2023-01-04T04:29:40.327Z,4.90
2023-01-04T04:32:09.851Z,5.40
2023-01-04T04:34:40.629Z,5.40
2023-01-04T04:37:10.372Z,5.40
2023-01-04T04:39:39.774Z,5.50
2023-01-04T04:42:10.918Z,5.40
2023-01-04T04:44:40.413Z,5.30
2023-01-04T04:47:09.944Z,5.50
2023-01-04T04:49:39.523Z,5.70
2023-01-04T04:52:09.041Z,5.20
2023-01-04T04:54:38.543Z,5.00
2023-01-04T04:57:08.252Z,5.00
2023-01-04T04:59:37.652Z,5.10
2023-01-04T05:02:07.379Z,5.30
2023-01-04T05:04:37.112Z,4.90
2023-01-04T05:07:12.218Z,4.90
2023-01-04T05:09:37.619Z,4.90
2023-01-04T05:12:25.075Z,5.10
2023-01-04T05:14:54.740Z,5.00
2023-01-04T05:17:24.182Z,4.80
2023-01-04T05:19:53.633Z,5.20
2023-01-04T05:22:23.073Z,5.10
2023-01-04T05:24:52.503Z,5.30
2023-01-04T05:27:22.223Z,5.20
2023-01-04T05:30:09.494Z,5.30
2023-01-04T05:32:39.050Z,5.20
2023-01-04T05:35:08.812Z,5.40
2023-01-04T05:37:38.239Z,5.10
2023-01-04T05:40:08.147Z,4.60
2023-01-04T05:42:37.582Z,4.70
2023-01-04T05:45:08.341Z,4.70
2023-01-04T05:47:37.829Z,5.10
2023-01-04T05:50:08.726Z,5.10
2023-01-04T05:52:39.014Z,5.20
2023-01-04T05:55:08.774Z,5.30
2023-01-04T05:57:38.266Z,5.40
2023-01-04T06:00:09.582Z,5.50
2023-01-04T06:02:43.199Z,5.40
2023-01-04T06:05:13.690Z,5.50
2023-01-04T06:07:43.160Z,5.70
2023-01-04T06:10:14.445Z,5.30
2023-01-04T06:12:43.908Z,5.40
2023-01-04T06:15:13.792Z,5.10
2023-01-04T06:17:44.127Z,4.90
2023-01-04T06:20:15.752Z,4.70
2023-01-04T06:22:45.770Z,4.60
2023-01-04T06:25:15.251Z,4.70
2023-01-04T06:27:44.816Z,5.00
2023-01-04T06:30:14.293Z,4.90
2023-01-04T06:32:43.980Z,4.80
2023-01-04T06:35:13.435Z,4.80
2023-01-04T06:37:42.972Z,4.60
2023-01-04T06:40:12.558Z,4.40
2023-01-04T06:42:45.046Z,4.40
2023-01-04T06:45:17.775Z,4.50
2023-01-04T06:47:48.148Z,4.60
2023-01-04T06:50:18.001Z,4.60
2023-01-04T06:52:47.430Z,4.60
2023-01-04T06:55:17.314Z,4.60
2023-01-04T06:57:46.807Z,4.50
2023-01-04T07:00:16.831Z,4.40
2023-01-04T07:03:15.408Z,4.40
2023-01-04T07:05:18.536Z,4.10
2023-01-04T07:07:48.036Z,4.30
2023-01-04T07:10:17.534Z,4.30
2023-01-04T07:12:47.287Z,4.10
2023-01-04T07:15:37.188Z,4.30
2023-01-04T07:17:51.898Z,4.20
2023-01-04T07:20:22.198Z,4.40
2023-01-04T07:22:51.799Z,4.80
2023-01-04T07:25:21.789Z,4.80
2023-01-04T07:27:55.351Z,4.80
2023-01-04T07:30:25.438Z,4.40
2023-01-04T07:32:56.512Z,4.80
2023-01-04T07:35:26.114Z,4.60
2023-01-04T07:37:58.771Z,4.70
2023-01-04T07:40:27.825Z,4.50
2023-01-04T07:43:02.070Z,4.40
2023-01-04T07:45:31.741Z,4.30
2023-01-04T07:48:01.166Z,4.10
2023-01-04T07:50:30.993Z,4.00
2023-01-04T07:53:02.336Z,4.40
2023-01-04T07:55:31.914Z,4.60
2023-01-04T07:58:01.361Z,4.40
2023-01-04T08:00:30.805Z,4.40
2023-01-04T08:03:00.626Z,4.50
2023-01-04T08:05:35.563Z,4.40
2023-01-04T08:08:05.314Z,4.50
2023-01-04T08:10:34.812Z,4.40
2023-01-04T08:13:04.331Z,4.60
2023-01-04T08:15:34.103Z,4.70
2023-01-04T08:18:03.660Z,5.00
2023-01-04T08:20:33.629Z,5.00
2023-01-04T08:23:03.178Z,5.00
2023-01-04T08:25:33.382Z,4.80
2023-01-04T08:28:02.816Z,4.80
2023-01-04T08:30:32.486Z,4.70
2023-01-04T08:33:02.497Z,4.70
2023-01-04T08:35:31.983Z,4.60
2023-01-04T08:38:28.416Z,4.80
2023-01-04T08:40:58.529Z,4.80
2023-01-04T08:43:04.054Z,4.70
2023-01-04T08:45:33.567Z,4.70
2023-01-04T08:48:03.524Z,5.00
2023-01-04T08:50:32.957Z,4.80
2023-01-04T08:53:02.852Z,4.70
2023-01-04T08:55:32.605Z,4.90
2023-01-04T08:58:03.477Z,5.00
2023-01-04T09:00:32.972Z,5.30
2023-01-04T09:03:02.646Z,5.40
2023-01-04T09:05:33.493Z,4.90
2023-01-04T09:08:02.931Z,4.80
2023-01-04T09:10:32.427Z,5.10
2023-01-04T09:13:02.211Z,5.20
2023-01-04T09:15:32.683Z,5.30
2023-01-04T09:18:30.869Z,5.30
2023-01-04T09:20:34.548Z,5.10
2023-01-04T09:23:04.097Z,5.30
2023-01-04T09:25:33.518Z,5.60
2023-01-04T09:28:02.961Z,5.40
2023-01-04T09:30:32.808Z,5.40
2023-01-04T09:33:02.217Z,5.20
2023-01-04T09:35:31.720Z,4.90
2023-01-04T09:38:01.773Z,5.10
2023-01-04T09:40:34.262Z,5.20
2023-01-04T09:43:21.033Z,5.30
2023-01-04T09:45:37.473Z,5.20
2023-01-04T09:48:10.239Z,5.00
2023-01-04T09:50:45.649Z,5.30
2023-01-04T09:53:21.730Z,5.20
2023-01-04T09:55:53.872Z,5.30
2023-01-04T09:58:36.013Z,5.50
2023-01-04T10:01:17.771Z,5.50
2023-01-04T10:03:50.996Z,5.50
2023-01-04T10:06:20.154Z,5.80
2023-01-04T10:08:48.787Z,6.10
2023-01-04T10:11:26.469Z,6.40
2023-01-04T10:14:26.761Z,6.80
2023-01-04T10:17:14.279Z,7.20
2023-01-04T10:21:16.183Z,7.30
2023-01-04T10:22:47.797Z,7.60
2023-01-04T10:25:41.969Z,8.50
2023-01-04T10:28:30.767Z,9.10
2023-01-04T10:31:40.149Z,9.60
2023-01-04T10:33:53.752Z,10.40
2023-01-04T10:36:26.268Z,10.60
2023-01-04T10:38:56.850Z,9.40
2023-01-04T10:41:28.816Z,9.50
2023-01-04T10:44:21.466Z,8.70
2023-01-04T10:47:24.342Z,8.50
2023-01-04T10:49:56.903Z,8.40
2023-01-04T10:52:29.398Z,8.80
2023-01-04T10:55:18.869Z,8.70
2023-01-04T10:57:54.582Z,9.00
2023-01-04T11:00:44.704Z,9.60
2023-01-04T11:03:23.350Z,9.80
2023-01-04T11:05:55.992Z,9.40
2023-01-04T11:08:44.719Z,9.70
2023-01-04T11:11:23.047Z,9.50
2023-01-04T11:13:52.897Z,9.10
2023-01-04T11:16:22.464Z,8.80
2023-01-04T11:18:51.582Z,8.60
2023-01-04T11:21:23.999Z,9.00
2023-01-04T11:23:56.573Z,8.70
2023-01-04T11:26:29.621Z,8.70
2023-01-04T11:29:04.881Z,8.60
2023-01-04T11:31:40.254Z,9.20
2023-01-04T11:34:09.801Z,8.90
2023-01-04T11:36:45.311Z,9.40
2023-01-04T11:39:25.119Z,9.30
2023-01-04T11:42:03.289Z,9.30
2023-01-04T11:44:33.321Z,9.30
2023-01-04T11:47:10.553Z,9.20
2023-01-04T11:49:39.881Z,9.10
2023-01-04T11:52:12.432Z,8.90
2023-01-04T11:54:41.880Z,9.20
2023-01-04T11:57:14.370Z,9.50
2023-01-04T11:59:44.846Z,9.20
2023-01-04T12:02:42.749Z,9.20
2023-01-04T12:04:52.810Z,9.40
2023-01-04T12:07:28.183Z,9.20
2023-01-04T12:10:04.863Z,9.20
2023-01-04T12:12:35.666Z,9.20
2023-01-04T12:15:08.551Z,9.10
2023-01-04T12:17:53.268Z,9.40
2023-01-04T12:20:25.402Z,9.30
2023-01-04T12:22:55.113Z,9.20
2023-01-04T12:25:44.211Z,9.20
2023-01-04T12:28:34.554Z,9.20
2023-01-04T12:31:28.528Z,9.30
2023-01-04T12:34:00.501Z,9.40
2023-01-04T12:36:33.707Z,9.70
2023-01-04T12:39:14.974Z,9.40
2023-01-04T12:41:49.738Z,9.60
2023-01-04T12:44:36.882Z,9.50
2023-01-04T12:47:24.950Z,9.60
2023-01-04T12:50:00.264Z,9.60
2023-01-04T12:52:42.967Z,9.70
2023-01-04T12:55:07.673Z,9.80
2023-01-04T12:57:38.798Z,9.70
2023-01-04T13:00:13.047Z,9.50
2023-01-04T13:02:49.900Z,9.40
2023-01-04T13:07:56.867Z,9.40
2023-01-04T13:10:51.826Z,9.30
2023-01-04T13:13:39.850Z,9.30
2023-01-04T13:16:30.500Z,9.40
2023-01-04T13:19:03.673Z,9.40
2023-01-04T13:21:50.535Z,9.50
2023-01-04T13:24:26.434Z,9.40
2023-01-04T13:26:57.964Z,9.40
2023-01-04T13:29:35.847Z,9.30
2023-01-04T13:32:09.320Z,9.30
2023-01-04T13:34:42.537Z,9.40
2023-01-04T13:37:15.031Z,9.40
2023-01-04T13:39:56.029Z,9.40
2023-01-04T13:42:37.498Z,9.40
2023-01-04T13:45:28.722Z,9.40
2023-01-04T13:48:01.101Z,9.40
2023-01-04T13:50:44.003Z,9.40
2023-01-04T13:53:19.335Z,9.40
2023-01-04T13:55:51.511Z,9.40
2023-01-04T13:58:23.835Z,9.50
2023-01-04T14:01:05.970Z,9.40
2023-01-04T14:03:44.380Z,9.50
2023-01-04T14:06:23.203Z,9.40
2023-01-04T14:09:01.791Z,9.40
2023-01-04T14:11:54.302Z,9.50
2023-01-04T14:14:29.835Z,9.50
2023-01-04T14:17:29.353Z,9.50
2023-01-04T14:20:01.425Z,9.40
2023-01-04T14:22:35.175Z,9.50
2023-01-04T14:25:33.355Z,9.50
2023-01-04T14:28:31.374Z,9.50
2023-01-04T14:31:06.868Z,9.50
2023-01-04T14:33:45.946Z,9.90
2023-01-04T14:36:18.359Z,9.90
2023-01-04T14:39:10.637Z,9.90
2023-01-04T14:41:55.892Z,9.80
2023-01-04T14:44:29.016Z,9.80
2023-01-04T14:46:59.001Z,9.80
2023-01-04T14:49:29.872Z,9.70
2023-01-04T14:52:01.854Z,9.70
2023-01-04T14:54:34.224Z,9.70
2023-01-04T14:57:03.903Z,9.70
2023-01-04T14:59:33.324Z,9.70
2023-01-04T15:02:03.049Z,9.80
2023-01-04T15:04:32.665Z,9.80
2023-01-04T15:07:02.964Z,10.00
2023-01-04T15:09:33.010Z,9.90
2023-01-04T15:12:02.549Z,10.00
2023-01-04T15:14:31.980Z,9.90
2023-01-04T15:17:00.743Z,9.90
2023-01-04T15:19:37.277Z,9.90
2023-01-04T15:22:00.759Z,9.90
2023-01-04T15:24:30.225Z,9.80
2023-01-04T15:26:59.747Z,9.80
2023-01-04T15:29:29.617Z,9.80
2023-01-04T15:31:59.064Z,9.80
2023-01-04T15:34:28.761Z,9.80
2023-01-04T15:37:23.603Z,9.80
2023-01-04T15:39:48.427Z,9.70
2023-01-04T15:42:35.852Z,9.70
2023-01-04T15:45:06.297Z,9.70
2023-01-04T15:47:34.972Z,9.70
2023-01-04T15:50:05.902Z,9.70
2023-01-04T15:52:35.343Z,9.60
2023-01-04T15:55:05.135Z,9.60
2023-01-04T15:57:40.077Z,9.50
2023-01-04T16:00:08.838Z,9.50
2023-01-04T16:02:40.133Z,9.50
2023-01-04T16:05:10.848Z,9.50
2023-01-04T16:07:40.277Z,9.50
2023-01-04T16:10:11.842Z,9.40
2023-01-04T16:12:49.889Z,9.40
2023-01-04T16:15:19.344Z,9.40
2023-01-04T16:17:49.092Z,9.30
2023-01-04T16:20:20.440Z,9.30
2023-01-04T16:22:50.031Z,9.20
2023-01-04T16:25:19.556Z,9.20
2023-01-04T16:27:49.752Z,9.20
2023-01-04T16:30:22.135Z,9.10
2023-01-04T16:32:51.389Z,9.10
2023-01-04T16:35:20.895Z,9.00
2023-01-04T16:37:50.326Z,8.90
2023-01-04T16:40:19.982Z,8.90
2023-01-04T16:42:51.043Z,8.90
2023-01-04T16:45:20.582Z,8.80
2023-01-04T16:47:50.483Z,8.80
2023-01-04T16:50:20.061Z,8.70
2023-01-04T16:52:49.486Z,8.80
2023-01-04T16:55:23.838Z,8.60
2023-01-04T16:57:50.594Z,8.60
2023-01-04T17:00:20.265Z,8.60
2023-01-04T17:02:49.823Z,8.50
2023-01-04T17:05:19.658Z,8.50
2023-01-04T17:07:49.146Z,8.50
2023-01-04T17:10:20.643Z,8.40
2023-01-04T17:12:51.163Z,8.50
2023-01-04T17:15:42.467Z,8.40
2023-01-04T17:17:51.648Z,8.40
2023-01-04T17:20:21.463Z,8.30
2023-01-04T17:22:50.905Z,8.40
2023-01-04T17:25:20.949Z,8.30
2023-01-04T17:27:50.804Z,8.30
2023-01-04T17:30:20.239Z,8.30
2023-01-04T17:32:50.025Z,8.20
2023-01-04T17:35:19.780Z,8.10
2023-01-04T17:37:49.221Z,8.10
2023-01-04T17:40:22.872Z,8.10
2023-01-04T17:42:50.097Z,8.10
2023-01-04T17:45:19.509Z,8.10
2023-01-04T17:47:49.118Z,8.10
2023-01-04T17:50:20.044Z,8.00
2023-01-04T17:52:53.030Z,8.00
2023-01-04T17:55:22.618Z,7.90
2023-01-04T17:57:52.048Z,8.00
2023-01-04T18:00:21.714Z,7.90
2023-01-04T18:02:51.682Z,7.80
2023-01-04T18:05:21.176Z,7.80
2023-01-04T18:07:50.617Z,7.90
2023-01-04T18:10:40.518Z,7.80
2023-01-04T18:12:51.229Z,7.80
2023-01-04T18:15:22.035Z,7.70
2023-01-04T18:17:51.481Z,7.70
2023-01-04T18:20:24.842Z,7.70
2023-01-04T18:22:52.117Z,7.60
2023-01-04T18:25:22.010Z,7.80
2023-01-04T18:27:51.507Z,7.60
2023-01-04T18:30:21.293Z,7.60
2023-01-04T18:32:51.685Z,7.60
2023-01-04T18:35:21.966Z,7.50
2023-01-04T18:37:51.415Z,7.40
2023-01-04T18:40:21.779Z,7.40
2023-01-04T18:42:52.993Z,7.40
2023-01-04T18:45:22.435Z,7.40
2023-01-04T18:47:52.490Z,7.40
2023-01-04T18:50:22.039Z,7.30
2023-01-04T18:52:51.469Z,7.30
2023-01-04T18:55:20.907Z,7.30
2023-01-04T18:57:50.855Z,7.30
2023-01-04T19:00:20.509Z,7.30
2023-01-04T19:02:50.325Z,7.20
2023-01-04T19:05:20.545Z,7.20
2023-01-04T19:07:50.405Z,7.20
2023-01-04T19:10:19.873Z,7.30
2023-01-04T19:12:49.385Z,7.10
2023-01-04T19:15:18.965Z,7.20
2023-01-04T19:17:48.383Z,7.10
2023-01-04T19:20:19.110Z,7.00
2023-01-04T19:22:48.616Z,7.10
2023-01-04T19:25:21.910Z,7.00
2023-01-04T19:27:49.308Z,6.90
2023-01-04T19:30:18.742Z,6.90
2023-01-04T19:32:48.166Z,6.90
2023-01-04T19:35:18.586Z,6.90
2023-01-04T19:37:48.081Z,6.80
2023-01-04T19:40:17.658Z,6.80
2023-01-04T19:42:47.515Z,6.60
2023-01-04T19:45:17.099Z,6.80
2023-01-04T19:47:46.584Z,6.80
2023-01-04T19:50:16.116Z,6.80
2023-01-04T19:52:45.711Z,6.80
2023-01-04T19:55:15.472Z,6.80
2023-01-04T19:57:45.016Z,6.80
2023-01-04T20:00:15.432Z,6.90
2023-01-04T20:02:44.952Z,6.80
2023-01-04T20:05:14.635Z,6.70
2023-01-04T20:07:45.843Z,6.90
2023-01-04T20:10:16.118Z,6.90
2023-01-04T20:12:45.673Z,6.70
2023-01-04T20:15:15.163Z,6.70
2023-01-04T20:17:44.691Z,6.70
2023-01-04T20:20:14.819Z,6.70
2023-01-04T20:22:44.305Z,6.60
2023-01-04T20:25:15.701Z,6.70
2023-01-04T20:27:45.128Z,6.70
2023-01-04T20:30:15.386Z,6.70
2023-01-04T20:32:44.807Z,6.60
2023-01-04T20:35:14.245Z,6.70
2023-01-04T20:37:44.187Z,6.60
2023-01-04T20:40:13.812Z,6.60
2023-01-04T20:43:01.317Z,6.50
2023-01-04T20:45:30.753Z,6.50
2023-01-04T20:48:00.172Z,6.50
2023-01-04T20:50:29.637Z,6.40
2023-01-04T20:52:59.052Z,6.40
2023-01-04T20:55:28.564Z,6.40
2023-01-04T20:57:58.155Z,6.30
2023-01-04T21:00:27.575Z,6.30
2023-01-04T21:02:57.146Z,6.40
2023-01-04T21:05:27.384Z,6.40
2023-01-04T21:07:57.052Z,6.30
2023-01-04T21:10:26.778Z,6.30
2023-01-04T21:12:56.714Z,6.40
2023-01-04T21:15:26.195Z,6.20
2023-01-04T21:17:55.701Z,6.10
2023-01-04T21:20:25.448Z,6.30
2023-01-04T21:22:54.882Z,6.20
2023-01-04T21:25:24.480Z,6.20
2023-01-04T21:27:54.500Z,6.10
2023-01-04T21:30:23.936Z,6.30
2023-01-04T21:32:58.460Z,6.30
2023-01-04T21:35:24.773Z,6.40
2023-01-04T21:37:54.822Z,6.40
2023-01-04T21:40:24.677Z,6.40
2023-01-04T21:42:54.362Z,6.60
2023-01-04T21:45:24.226Z,6.50
2023-01-04T21:47:55.213Z,6.50
2023-01-04T21:50:24.727Z,6.20
2023-01-04T21:52:54.148Z,6.30
2023-01-04T21:55:24.727Z,6.20
2023-01-04T21:57:55.187Z,6.30
2023-01-04T22:00:24.823Z,6.20
2023-01-04T22:02:54.318Z,6.10
2023-01-04T22:05:24.300Z,6.10
2023-01-04T22:07:53.799Z,6.10
2023-01-04T22:10:23.258Z,6.20
2023-01-04T22:12:52.771Z,6.40
2023-01-04T22:15:22.198Z,6.50
2023-01-04T22:17:51.636Z,6.40
2023-01-04T22:20:21.161Z,6.40
2023-01-04T22:22:50.638Z,6.40
2023-01-04T22:25:21.331Z,6.50
2023-01-04T22:27:52.429Z,6.70
2023-01-04T22:30:21.918Z,6.60
2023-01-04T22:32:52.355Z,6.50
2023-01-04T22:35:22.433Z,6.60
2023-01-04T22:37:52.182Z,6.60
2023-01-04T22:40:21.755Z,6.70
2023-01-04T22:42:51.189Z,6.50
2023-01-04T22:45:20.698Z,6.60
2023-01-04T22:47:50.192Z,6.60
2023-01-04T22:50:20.147Z,6.70
2023-01-04T22:52:51.258Z,6.70
2023-01-04T22:55:22.256Z,6.80
2023-01-04T22:57:51.694Z,6.80
2023-01-04T23:00:21.193Z,6.70
2023-01-04T23:02:51.156Z,6.80
2023-01-04T23:05:20.600Z,6.80
2023-01-04T23:07:50.333Z,6.70
2023-01-04T23:10:19.863Z,6.80
2023-01-04T23:12:49.269Z,6.70
2023-01-04T23:15:19.460Z,6.80
2023-01-04T23:17:48.093Z,6.60
2023-01-04T23:20:20.339Z,6.70
2023-01-04T23:22:49.149Z,6.80
2023-01-04T23:25:18.598Z,6.80
2023-01-04T23:27:48.017Z,6.70
2023-01-04T23:30:18.162Z,6.80
2023-01-04T23:32:47.574Z,6.90
2023-01-04T23:35:17.150Z,6.90
2023-01-04T23:37:47.445Z,6.90
2023-01-04T23:40:16.990Z,6.90
2023-01-04T23:42:46.802Z,7.10
2023-01-04T23:45:16.365Z,7.00
2023-01-04T23:47:47.447Z,6.90
2023-01-04T23:50:17.353Z,7.00
2023-01-04T23:52:46.773Z,6.90
2023-01-04T23:55:16.379Z,7.00
2023-01-04T23:57:46.356Z,7.00
